sensor_id;sensor_type;location;lat;lon;timestamp;pressure;altitude;pressure_sealevel;temperature;humidity
72110;BME280;59983;52.010;5.420;2023-03-25T00:00:24;100157.22;;;9.32;90.86
72110;BME280;59983;52.010;5.420;2023-03-25T00:02:51;100169.94;;;9.32;90.78
72110;BME280;59983;52.010;5.420;2023-03-25T00:05:19;100173.81;;;9.31;91.16
72110;BME280;59983;52.010;5.420;2023-03-25T00:07:50;100179.56;;;9.29;90.79
72110;BME280;59983;52.010;5.420;2023-03-25T00:10:17;100170.38;;;9.34;90.83
72110;BME280;59983;52.010;5.420;2023-03-25T00:12:43;100165.75;;;9.34;89.97
72110;BME280;59983;52.010;5.420;2023-03-25T00:15:11;100174.66;;;9.35;90.54
72110;BME280;59983;52.010;5.420;2023-03-25T00:17:38;100161.13;;;9.35;89.95
72110;BME280;59983;52.010;5.420;2023-03-25T00:20:06;100172.31;;;9.33;90.49
72110;BME280;59983;52.010;5.420;2023-03-25T00:22:37;100171.16;;;9.34;90.27
72110;BME280;59983;52.010;5.420;2023-03-25T00:25:12;100169.94;;;9.32;90.28
72110;BME280;59983;52.010;5.420;2023-03-25T00:27:42;100164.19;;;9.33;90.28
72110;BME280;59983;52.010;5.420;2023-03-25T00:30:13;100160.28;;;9.31;90.96
72110;BME280;59983;52.010;5.420;2023-03-25T00:32:39;100167.19;;;9.28;90.96
72110;BME280;59983;52.010;5.420;2023-03-25T00:35:06;100162.88;;;9.27;90.60
72110;BME280;59983;52.010;5.420;2023-03-25T00:37:34;100175.97;;;9.25;90.17
72110;BME280;59983;52.010;5.420;2023-03-25T00:40:01;100166.41;;;9.28;89.97
72110;BME280;59983;52.010;5.420;2023-03-25T00:42:27;100152.50;;;9.29;90.07
72110;BME280;59983;52.010;5.420;2023-03-25T00:44:54;100160.16;;;9.27;90.11
72110;BME280;59983;52.010;5.420;2023-03-25T00:47:21;100176.88;;;9.29;89.51
72110;BME280;59983;52.010;5.420;2023-03-25T00:49:48;100165.94;;;9.26;89.66
72110;BME280;59983;52.010;5.420;2023-03-25T00:52:15;100159.38;;;9.27;89.01
72110;BME280;59983;52.010;5.420;2023-03-25T00:54:42;100157.13;;;9.29;88.79
72110;BME280;59983;52.010;5.420;2023-03-25T00:57:09;100150.94;;;9.28;88.71
72110;BME280;59983;52.010;5.420;2023-03-25T00:59:35;100156.34;;;9.28;87.83
72110;BME280;59983;52.010;5.420;2023-03-25T01:02:02;100141.59;;;9.26;89.18
72110;BME280;59983;52.010;5.420;2023-03-25T01:04:33;100158.28;;;9.28;89.03
72110;BME280;59983;52.010;5.420;2023-03-25T01:07:00;100180.72;;;9.28;88.60
72110;BME280;59983;52.010;5.420;2023-03-25T01:09:29;100181.13;;;9.30;87.89
72110;BME280;59983;52.010;5.420;2023-03-25T01:11:56;100161.47;;;9.33;87.67
72110;BME280;59983;52.010;5.420;2023-03-25T01:14:23;100161.06;;;9.31;87.20
72110;BME280;59983;52.010;5.420;2023-03-25T01:16:53;100178.06;;;9.32;88.16
72110;BME280;59983;52.010;5.420;2023-03-25T01:19:21;100172.59;;;9.28;87.84
72110;BME280;59983;52.010;5.420;2023-03-25T01:21:48;100161.06;;;9.31;87.71
72110;BME280;59983;52.010;5.420;2023-03-25T01:24:15;100161.41;;;9.30;88.28
72110;BME280;59983;52.010;5.420;2023-03-25T01:26:43;100152.41;;;9.26;87.78
72110;BME280;59983;52.010;5.420;2023-03-25T01:29:12;100167.50;;;9.27;87.42
72110;BME280;59983;52.010;5.420;2023-03-25T01:31:39;100178.78;;;9.29;87.96
72110;BME280;59983;52.010;5.420;2023-03-25T01:34:06;100176.75;;;9.26;89.05
72110;BME280;59983;52.010;5.420;2023-03-25T01:36:34;100160.03;;;9.20;88.80
72110;BME280;59983;52.010;5.420;2023-03-25T01:39:03;100154.25;;;9.22;89.34
72110;BME280;59983;52.010;5.420;2023-03-25T01:41:32;100150.00;;;9.21;88.82
72110;BME280;59983;52.010;5.420;2023-03-25T01:46:49;100149.91;;;9.17;89.75
72110;BME280;59983;52.010;5.420;2023-03-25T01:49:29;100146.34;;;9.13;90.66
72110;BME280;59983;52.010;5.420;2023-03-25T01:52:02;100160.59;;;9.10;91.41
72110;BME280;59983;52.010;5.420;2023-03-25T01:54:31;100155.84;;;9.07;90.93
72110;BME280;59983;52.010;5.420;2023-03-25T01:56:58;100142.75;;;9.09;90.66
72110;BME280;59983;52.010;5.420;2023-03-25T01:59:27;100169.31;;;9.03;91.87
72110;BME280;59983;52.010;5.420;2023-03-25T02:01:55;100146.28;;;8.94;94.09
72110;BME280;59983;52.010;5.420;2023-03-25T02:04:44;100146.00;;;8.83;95.57
72110;BME280;59983;52.010;5.420;2023-03-25T02:07:17;100144.97;;;8.72;97.98
72110;BME280;59983;52.010;5.420;2023-03-25T02:09:45;100156.31;;;8.62;99.62
72110;BME280;59983;52.010;5.420;2023-03-25T02:12:11;100149.84;;;8.50;100.00
72110;BME280;59983;52.010;5.420;2023-03-25T02:14:38;100160.03;;;8.41;100.00
72110;BME280;59983;52.010;5.420;2023-03-25T02:41:13;100124.16;;;8.29;100.00
72110;BME280;59983;52.010;5.420;2023-03-25T02:43:45;100133.81;;;8.30;100.00
72110;BME280;59983;52.010;5.420;2023-03-25T02:46:17;100132.63;;;8.27;100.00
72110;BME280;59983;52.010;5.420;2023-03-25T02:52:10;100126.84;;;8.29;100.00
72110;BME280;59983;52.010;5.420;2023-03-25T02:54:35;100127.63;;;8.29;100.00
72110;BME280;59983;52.010;5.420;2023-03-25T02:57:05;100134.63;;;8.30;100.00
72110;BME280;59983;52.010;5.420;2023-03-25T02:59:34;100133.03;;;8.29;100.00
72110;BME280;59983;52.010;5.420;2023-03-25T03:02:09;100144.91;;;8.24;100.00
72110;BME280;59983;52.010;5.420;2023-03-25T03:04:48;100145.94;;;8.20;100.00
72110;BME280;59983;52.010;5.420;2023-03-25T03:07:23;100130.78;;;8.15;100.00
72110;BME280;59983;52.010;5.420;2023-03-25T03:09:56;100136.84;;;8.12;100.00
72110;BME280;59983;52.010;5.420;2023-03-25T03:15:26;100126.03;;;8.12;100.00
72110;BME280;59983;52.010;5.420;2023-03-25T03:18:03;100129.09;;;8.11;100.00
72110;BME280;59983;52.010;5.420;2023-03-25T03:20:39;100118.28;;;8.11;100.00
72110;BME280;59983;52.010;5.420;2023-03-25T03:23:37;100115.34;;;8.16;100.00
72110;BME280;59983;52.010;5.420;2023-03-25T03:26:32;100119.97;;;8.15;100.00
72110;BME280;59983;52.010;5.420;2023-03-25T03:29:12;100104.53;;;8.16;100.00
72110;BME280;59983;52.010;5.420;2023-03-25T03:34:42;100121.63;;;8.20;100.00
72110;BME280;59983;52.010;5.420;2023-03-25T03:37:18;100113.97;;;8.22;100.00
72110;BME280;59983;52.010;5.420;2023-03-25T03:39:48;100117.47;;;8.22;100.00
72110;BME280;59983;52.010;5.420;2023-03-25T03:42:24;100117.09;;;8.24;100.00
72110;BME280;59983;52.010;5.420;2023-03-25T03:44:57;100112.50;;;8.24;100.00
72110;BME280;59983;52.010;5.420;2023-03-25T03:47:29;100126.84;;;8.29;100.00
72110;BME280;59983;52.010;5.420;2023-03-25T03:50:06;100114.59;;;8.31;100.00
72110;BME280;59983;52.010;5.420;2023-03-25T03:52:42;100116.50;;;8.31;100.00
72110;BME280;59983;52.010;5.420;2023-03-25T03:55:14;100104.22;;;8.33;100.00
72110;BME280;59983;52.010;5.420;2023-03-25T03:57:57;100102.31;;;8.34;100.00
72110;BME280;59983;52.010;5.420;2023-03-25T04:00:28;100101.88;;;8.32;100.00
72110;BME280;59983;52.010;5.420;2023-03-25T04:03:02;100110.75;;;8.32;100.00
72110;BME280;59983;52.010;5.420;2023-03-25T04:05:30;100103.44;;;8.33;100.00
72110;BME280;59983;52.010;5.420;2023-03-25T04:08:03;100090.72;;;8.33;100.00
72110;BME280;59983;52.010;5.420;2023-03-25T04:11:03;100102.66;;;8.32;100.00
72110;BME280;59983;52.010;5.420;2023-03-25T04:13:35;100103.09;;;8.34;100.00
72110;BME280;59983;52.010;5.420;2023-03-25T04:16:04;100101.50;;;8.33;100.00
72110;BME280;59983;52.010;5.420;2023-03-25T04:18:31;100103.91;;;8.35;100.00
72110;BME280;59983;52.010;5.420;2023-03-25T04:21:00;100098.81;;;8.33;100.00
72110;BME280;59983;52.010;5.420;2023-03-25T04:23:27;100088.34;;;8.32;100.00
72110;BME280;59983;52.010;5.420;2023-03-25T04:25:57;100094.78;;;8.27;100.00
72110;BME280;59983;52.010;5.420;2023-03-25T04:28:28;100101.69;;;8.24;100.00
72110;BME280;59983;52.010;5.420;2023-03-25T04:30:54;100089.66;;;8.22;100.00
72110;BME280;59983;52.010;5.420;2023-03-25T04:33:23;100089.19;;;8.20;100.00
72110;BME280;59983;52.010;5.420;2023-03-25T04:35:51;100090.25;;;8.15;100.00
72110;BME280;59983;52.010;5.420;2023-03-25T04:38:18;100095.22;;;8.13;100.00
72110;BME280;59983;52.010;5.420;2023-03-25T04:40:46;100113.66;;;8.11;100.00
72110;BME280;59983;52.010;5.420;2023-03-25T04:43:14;100085.09;;;8.10;100.00
72110;BME280;59983;52.010;5.420;2023-03-25T04:45:42;100104.69;;;8.07;100.00
72110;BME280;59983;52.010;5.420;2023-03-25T04:48:22;100108.53;;;8.06;100.00
72110;BME280;59983;52.010;5.420;2023-03-25T04:50:49;100101.56;;;8.05;100.00
72110;BME280;59983;52.010;5.420;2023-03-25T04:53:21;100110.00;;;8.04;100.00
72110;BME280;59983;52.010;5.420;2023-03-25T04:55:47;100120.78;;;8.04;100.00
72110;BME280;59983;52.010;5.420;2023-03-25T04:58:16;100123.59;;;8.07;100.00
72110;BME280;59983;52.010;5.420;2023-03-25T05:00:47;100105.47;;;8.08;100.00
72110;BME280;59983;52.010;5.420;2023-03-25T05:03:17;100108.44;;;8.03;100.00
72110;BME280;59983;52.010;5.420;2023-03-25T05:05:50;100112.59;;;8.00;100.00
72110;BME280;59983;52.010;5.420;2023-03-25T05:08:17;100125.41;;;7.87;100.00
72110;BME280;59983;52.010;5.420;2023-03-25T05:10:44;100128.47;;;7.74;100.00
72110;BME280;59983;52.010;5.420;2023-03-25T05:13:10;100126.59;;;7.62;100.00
72110;BME280;59983;52.010;5.420;2023-03-25T05:15:37;100123.25;;;7.53;100.00
72110;BME280;59983;52.010;5.420;2023-03-25T05:18:08;100116.09;;;7.45;100.00
72110;BME280;59983;52.010;5.420;2023-03-25T05:20:40;100136.31;;;7.38;100.00
72110;BME280;59983;52.010;5.420;2023-03-25T05:23:08;100143.28;;;7.39;100.00
72110;BME280;59983;52.010;5.420;2023-03-25T05:25:44;100122.75;;;7.35;100.00
72110;BME280;59983;52.010;5.420;2023-03-25T05:28:11;100136.09;;;7.31;100.00
72110;BME280;59983;52.010;5.420;2023-03-25T05:30:40;100127.56;;;7.29;100.00
72110;BME280;59983;52.010;5.420;2023-03-25T05:33:08;100124.88;;;7.29;100.00
72110;BME280;59983;52.010;5.420;2023-03-25T05:35:36;100127.22;;;7.31;100.00
72110;BME280;59983;52.010;5.420;2023-03-25T05:38:04;100124.66;;;7.34;100.00
72110;BME280;59983;52.010;5.420;2023-03-25T05:40:31;100120.38;;;7.33;100.00
72110;BME280;59983;52.010;5.420;2023-03-25T05:42:58;100126.22;;;7.35;100.00
72110;BME280;59983;52.010;5.420;2023-03-25T05:45:25;100130.13;;;7.38;100.00
72110;BME280;59983;52.010;5.420;2023-03-25T05:47:51;100135.63;;;7.42;100.00
72110;BME280;59983;52.010;5.420;2023-03-25T05:50:19;100122.25;;;7.45;100.00
72110;BME280;59983;52.010;5.420;2023-03-25T05:52:47;100136.97;;;7.48;100.00
72110;BME280;59983;52.010;5.420;2023-03-25T05:55:19;100138.66;;;7.52;100.00
72110;BME280;59983;52.010;5.420;2023-03-25T05:57:47;100155.03;;;7.59;100.00
72110;BME280;59983;52.010;5.420;2023-03-25T06:00:15;100148.97;;;7.62;100.00
72110;BME280;59983;52.010;5.420;2023-03-25T06:02:44;100153.94;;;7.60;100.00
72110;BME280;59983;52.010;5.420;2023-03-25T06:05:12;100170.13;;;7.60;100.00
72110;BME280;59983;52.010;5.420;2023-03-25T06:07:43;100166.75;;;7.63;100.00
72110;BME280;59983;52.010;5.420;2023-03-25T06:10:14;100165.63;;;7.64;100.00
72110;BME280;59983;52.010;5.420;2023-03-25T06:12:45;100171.09;;;7.68;100.00
72110;BME280;59983;52.010;5.420;2023-03-25T06:15:15;100152.31;;;7.72;100.00
72110;BME280;59983;52.010;5.420;2023-03-25T06:17:43;100155.91;;;7.76;100.00
72110;BME280;59983;52.010;5.420;2023-03-25T06:20:13;100148.59;;;7.76;100.00
72110;BME280;59983;52.010;5.420;2023-03-25T06:22:43;100149.06;;;7.78;100.00
72110;BME280;59983;52.010;5.420;2023-03-25T06:25:12;100158.72;;;7.79;100.00
72110;BME280;59983;52.010;5.420;2023-03-25T06:27:39;100154.44;;;7.78;100.00
72110;BME280;59983;52.010;5.420;2023-03-25T06:30:10;100152.84;;;7.77;100.00
72110;BME280;59983;52.010;5.420;2023-03-25T06:32:37;100154.75;;;7.77;100.00
72110;BME280;59983;52.010;5.420;2023-03-25T06:35:06;100158.59;;;7.76;100.00
72110;BME280;59983;52.010;5.420;2023-03-25T06:37:33;100159.06;;;7.78;100.00
72110;BME280;59983;52.010;5.420;2023-03-25T06:40:00;100153.75;;;7.81;100.00
72110;BME280;59983;52.010;5.420;2023-03-25T06:42:27;100166.13;;;7.82;100.00
72110;BME280;59983;52.010;5.420;2023-03-25T06:44:54;100183.53;;;7.85;100.00
72110;BME280;59983;52.010;5.420;2023-03-25T06:47:21;100165.53;;;7.89;100.00
72110;BME280;59983;52.010;5.420;2023-03-25T06:49:48;100159.09;;;7.93;100.00
72110;BME280;59983;52.010;5.420;2023-03-25T06:52:15;100170.25;;;7.92;100.00
72110;BME280;59983;52.010;5.420;2023-03-25T06:54:42;100175.56;;;7.88;100.00
72110;BME280;59983;52.010;5.420;2023-03-25T06:57:08;100187.38;;;7.84;100.00
72110;BME280;59983;52.010;5.420;2023-03-25T06:59:35;100181.44;;;7.78;100.00
72110;BME280;59983;52.010;5.420;2023-03-25T07:02:01;100181.09;;;7.80;100.00
72110;BME280;59983;52.010;5.420;2023-03-25T07:04:28;100196.94;;;7.81;100.00
72110;BME280;59983;52.010;5.420;2023-03-25T07:06:55;100180.31;;;7.79;100.00
72110;BME280;59983;52.010;5.420;2023-03-25T07:09:23;100192.91;;;7.75;100.00
72110;BME280;59983;52.010;5.420;2023-03-25T07:11:49;100182.03;;;7.72;100.00
72110;BME280;59983;52.010;5.420;2023-03-25T07:14:16;100186.19;;;7.69;100.00
72110;BME280;59983;52.010;5.420;2023-03-25T07:16:43;100181.59;;;7.70;100.00
72110;BME280;59983;52.010;5.420;2023-03-25T07:19:10;100182.81;;;7.72;100.00
72110;BME280;59983;52.010;5.420;2023-03-25T07:21:36;100184.38;;;7.73;100.00
72110;BME280;59983;52.010;5.420;2023-03-25T07:24:03;100187.75;;;7.70;100.00
72110;BME280;59983;52.010;5.420;2023-03-25T07:26:29;100182.38;;;7.70;100.00
72110;BME280;59983;52.010;5.420;2023-03-25T07:28:56;100178.09;;;7.69;100.00
72110;BME280;59983;52.010;5.420;2023-03-25T07:31:23;100188.13;;;7.69;100.00
72110;BME280;59983;52.010;5.420;2023-03-25T07:33:50;100195.84;;;7.70;100.00
72110;BME280;59983;52.010;5.420;2023-03-25T07:36:17;100205.97;;;7.73;100.00
72110;BME280;59983;52.010;5.420;2023-03-25T07:38:43;100201.44;;;7.77;100.00
72110;BME280;59983;52.010;5.420;2023-03-25T07:41:11;100208.53;;;7.82;100.00
72110;BME280;59983;52.010;5.420;2023-03-25T07:43:39;100193.19;;;7.98;100.00
72110;BME280;59983;52.010;5.420;2023-03-25T07:46:06;100195.06;;;8.10;100.00
72110;BME280;59983;52.010;5.420;2023-03-25T07:48:32;100201.53;;;8.21;100.00
72110;BME280;59983;52.010;5.420;2023-03-25T07:50:59;100193.53;;;8.24;100.00
72110;BME280;59983;52.010;5.420;2023-03-25T07:53:25;100197.59;;;8.18;100.00
72110;BME280;59983;52.010;5.420;2023-03-25T07:55:52;100194.13;;;8.18;100.00
72110;BME280;59983;52.010;5.420;2023-03-25T07:58:19;100188.47;;;8.23;100.00
72110;BME280;59983;52.010;5.420;2023-03-25T08:00:45;100212.09;;;8.26;100.00
72110;BME280;59983;52.010;5.420;2023-03-25T08:03:13;100199.38;;;8.27;100.00
72110;BME280;59983;52.010;5.420;2023-03-25T08:05:44;100198.94;;;8.24;100.00
72110;BME280;59983;52.010;5.420;2023-03-25T08:08:12;100202.78;;;8.23;100.00
72110;BME280;59983;52.010;5.420;2023-03-25T08:10:43;100206.59;;;8.22;100.00
72110;BME280;59983;52.010;5.420;2023-03-25T08:13:10;100210.88;;;8.23;100.00
72110;BME280;59983;52.010;5.420;2023-03-25T08:15:37;100219.75;;;8.24;100.00
72110;BME280;59983;52.010;5.420;2023-03-25T08:18:04;100209.41;;;8.26;100.00
72110;BME280;59983;52.010;5.420;2023-03-25T08:20:33;100236.41;;;8.26;100.00
72110;BME280;59983;52.010;5.420;2023-03-25T08:23:00;100206.78;;;8.30;100.00
72110;BME280;59983;52.010;5.420;2023-03-25T08:25:28;100224.25;;;8.32;100.00
72110;BME280;59983;52.010;5.420;2023-03-25T08:27:55;100223.56;;;8.35;100.00
72110;BME280;59983;52.010;5.420;2023-03-25T08:30:22;100212.28;;;8.33;100.00
72110;BME280;59983;52.010;5.420;2023-03-25T08:32:48;100214.69;;;8.35;100.00
72110;BME280;59983;52.010;5.420;2023-03-25T08:35:21;100215.78;;;8.34;100.00
72110;BME280;59983;52.010;5.420;2023-03-25T08:37:49;100216.69;;;8.38;100.00
72110;BME280;59983;52.010;5.420;2023-03-25T08:40:16;100222.66;;;8.31;100.00
72110;BME280;59983;52.010;5.420;2023-03-25T08:42:43;100221.34;;;8.25;100.00
72110;BME280;59983;52.010;5.420;2023-03-25T08:45:09;100218.44;;;8.18;100.00
72110;BME280;59983;52.010;5.420;2023-03-25T08:47:36;100223.84;;;8.18;100.00
72110;BME280;59983;52.010;5.420;2023-03-25T08:50:03;100213.03;;;8.18;100.00
72110;BME280;59983;52.010;5.420;2023-03-25T08:52:29;100218.00;;;8.16;100.00
72110;BME280;59983;52.010;5.420;2023-03-25T08:54:56;100237.47;;;8.09;100.00
72110;BME280;59983;52.010;5.420;2023-03-25T08:57:23;100217.22;;;8.03;100.00
72110;BME280;59983;52.010;5.420;2023-03-25T08:59:49;100215.00;;;8.05;100.00
72110;BME280;59983;52.010;5.420;2023-03-25T09:02:16;100217.09;;;8.12;100.00
72110;BME280;59983;52.010;5.420;2023-03-25T09:04:42;100231.59;;;8.19;100.00
72110;BME280;59983;52.010;5.420;2023-03-25T09:07:09;100237.19;;;8.27;100.00
72110;BME280;59983;52.010;5.420;2023-03-25T09:09:39;100246.59;;;8.45;100.00
72110;BME280;59983;52.010;5.420;2023-03-25T09:12:06;100233.13;;;8.61;100.00
72110;BME280;59983;52.010;5.420;2023-03-25T09:14:33;100242.06;;;8.77;100.00
72110;BME280;59983;52.010;5.420;2023-03-25T09:16:59;100234.91;;;8.69;100.00
72110;BME280;59983;52.010;5.420;2023-03-25T09:19:26;100242.47;;;8.63;100.00
72110;BME280;59983;52.010;5.420;2023-03-25T09:21:52;100236.69;;;8.65;100.00
72110;BME280;59983;52.010;5.420;2023-03-25T09:24:19;100232.06;;;8.65;100.00
72110;BME280;59983;52.010;5.420;2023-03-25T09:26:48;100239.09;;;8.66;100.00
72110;BME280;59983;52.010;5.420;2023-03-25T09:29:15;100236.97;;;8.60;100.00
72110;BME280;59983;52.010;5.420;2023-03-25T09:31:41;100245.88;;;8.60;100.00
72110;BME280;59983;52.010;5.420;2023-03-25T09:34:08;100257.69;;;8.56;100.00
72110;BME280;59983;52.010;5.420;2023-03-25T09:36:35;100249.84;;;8.50;100.00
72110;BME280;59983;52.010;5.420;2023-03-25T09:39:02;100251.25;;;8.32;100.00
72110;BME280;59983;52.010;5.420;2023-03-25T09:44:36;100251.13;;;8.29;100.00
72110;BME280;59983;52.010;5.420;2023-03-25T09:47:06;100244.72;;;8.33;100.00
72110;BME280;59983;52.010;5.420;2023-03-25T09:49:45;100245.75;;;8.41;100.00
72110;BME280;59983;52.010;5.420;2023-03-25T09:52:30;100236.34;;;8.50;100.00
72110;BME280;59983;52.010;5.420;2023-03-25T09:55:07;100269.16;;;8.65;100.00
72110;BME280;59983;52.010;5.420;2023-03-25T09:57:43;100246.94;;;8.71;100.00
72110;BME280;59983;52.010;5.420;2023-03-25T10:00:16;100264.91;;;8.79;100.00
72110;BME280;59983;52.010;5.420;2023-03-25T10:03:02;100244.22;;;8.71;100.00
72110;BME280;59983;52.010;5.420;2023-03-25T10:06:18;100243.00;;;8.69;100.00
72110;BME280;59983;52.010;5.420;2023-03-25T10:11:06;100263.94;;;8.72;100.00
72110;BME280;59983;52.010;5.420;2023-03-25T10:13:54;100262.91;;;8.76;100.00
72110;BME280;59983;52.010;5.420;2023-03-25T10:16:44;100251.81;;;8.82;100.00
72110;BME280;59983;52.010;5.420;2023-03-25T10:22:05;100258.13;;;8.86;100.00
72110;BME280;59983;52.010;5.420;2023-03-25T10:24:41;100270.06;;;8.85;100.00
72110;BME280;59983;52.010;5.420;2023-03-25T10:27:21;100276.34;;;8.89;100.00
72110;BME280;59983;52.010;5.420;2023-03-25T10:32:40;100278.13;;;9.13;100.00
72110;BME280;59983;52.010;5.420;2023-03-25T10:35:16;100274.72;;;9.16;100.00
72110;BME280;59983;52.010;5.420;2023-03-25T10:37:45;100265.03;;;9.15;100.00
72110;BME280;59983;52.010;5.420;2023-03-25T10:40:16;100263.19;;;9.19;100.00
72110;BME280;59983;52.010;5.420;2023-03-25T10:43:04;100273.31;;;9.22;100.00
72110;BME280;59983;52.010;5.420;2023-03-25T10:45:36;100271.84;;;9.24;100.00
72110;BME280;59983;52.010;5.420;2023-03-25T10:51:07;100273.94;;;9.15;100.00
72110;BME280;59983;52.010;5.420;2023-03-25T10:53:35;100268.44;;;9.12;100.00
72110;BME280;59983;52.010;5.420;2023-03-25T10:56:08;100316.78;;;9.13;100.00
72110;BME280;59983;52.010;5.420;2023-03-25T10:58:40;100285.66;;;9.19;100.00
72110;BME280;59983;52.010;5.420;2023-03-25T11:01:13;100301.72;;;9.28;100.00
72110;BME280;59983;52.010;5.420;2023-03-25T11:03:41;100288.19;;;9.28;100.00
72110;BME280;59983;52.010;5.420;2023-03-25T11:06:38;100291.84;;;9.20;100.00
72110;BME280;59983;52.010;5.420;2023-03-25T11:09:15;100294.69;;;9.27;100.00
72110;BME280;59983;52.010;5.420;2023-03-25T11:11:44;100305.69;;;9.34;100.00
72110;BME280;59983;52.010;5.420;2023-03-25T11:14:12;100325.63;;;9.42;100.00
72110;BME280;59983;52.010;5.420;2023-03-25T11:16:42;100299.50;;;9.49;100.00
72110;BME280;59983;52.010;5.420;2023-03-25T11:19:17;100314.44;;;9.59;100.00
72110;BME280;59983;52.010;5.420;2023-03-25T11:21:47;100323.31;;;9.75;100.00
72110;BME280;59983;52.010;5.420;2023-03-25T11:24:18;100312.91;;;9.93;100.00
72110;BME280;59983;52.010;5.420;2023-03-25T11:26:45;100334.91;;;10.07;100.00
72110;BME280;59983;52.010;5.420;2023-03-25T11:29:17;100336.59;;;10.31;98.07
72110;BME280;59983;52.010;5.420;2023-03-25T11:32:12;100307.69;;;10.39;100.00
72110;BME280;59983;52.010;5.420;2023-03-25T11:34:40;100331.84;;;10.44;98.58
72110;BME280;59983;52.010;5.420;2023-03-25T11:37:22;100329.69;;;10.53;96.13
72110;BME280;59983;52.010;5.420;2023-03-25T11:39:52;100309.34;;;10.63;97.06
72110;BME280;59983;52.010;5.420;2023-03-25T11:42:28;100319.91;;;10.68;98.56
72110;BME280;59983;52.010;5.420;2023-03-25T11:44:59;100342.09;;;10.54;96.49
72110;BME280;59983;52.010;5.420;2023-03-25T11:47:38;100300.88;;;10.45;98.92
72110;BME280;59983;52.010;5.420;2023-03-25T11:50:06;100325.41;;;10.52;97.04
72110;BME280;59983;52.010;5.420;2023-03-25T11:52:44;100288.44;;;10.44;97.61
72110;BME280;59983;52.010;5.420;2023-03-25T11:55:34;100298.28;;;10.33;98.43
72110;BME280;59983;52.010;5.420;2023-03-25T11:58:02;100325.69;;;10.47;98.42
72110;BME280;59983;52.010;5.420;2023-03-25T12:03:05;100326.97;;;10.72;95.39
72110;BME280;59983;52.010;5.420;2023-03-25T12:05:42;100304.63;;;10.79;94.83
72110;BME280;59983;52.010;5.420;2023-03-25T12:08:21;100297.38;;;11.06;92.86
72110;BME280;59983;52.010;5.420;2023-03-25T12:10:58;100290.19;;;11.17;93.06
72110;BME280;59983;52.010;5.420;2023-03-25T12:26:36;100303.19;;;11.54;91.35
72110;BME280;59983;52.010;5.420;2023-03-25T12:29:09;100301.22;;;11.51;87.90
72110;BME280;59983;52.010;5.420;2023-03-25T12:31:47;100301.41;;;11.65;87.20
72110;BME280;59983;52.010;5.420;2023-03-25T12:34:39;100295.31;;;11.72;88.87
72110;BME280;59983;52.010;5.420;2023-03-25T12:43:33;100290.72;;;11.26;89.47
72110;BME280;59983;52.010;5.420;2023-03-25T12:45:56;100298.81;;;11.23;87.72
72110;BME280;59983;52.010;5.420;2023-03-25T12:59:43;100304.00;;;11.09;88.47
72110;BME280;59983;52.010;5.420;2023-03-25T13:02:50;100337.91;;;11.18;88.93
72110;BME280;59983;52.010;5.420;2023-03-25T13:05:26;100295.13;;;11.34;87.20
72110;BME280;59983;52.010;5.420;2023-03-25T13:08:04;100303.56;;;11.52;88.45
72110;BME280;59983;52.010;5.420;2023-03-25T13:10:35;100285.44;;;11.60;86.62
72110;BME280;59983;52.010;5.420;2023-03-25T13:13:07;100295.97;;;11.65;87.20
72110;BME280;59983;52.010;5.420;2023-03-25T13:15:39;100353.28;;;11.56;86.69
72110;BME280;59983;52.010;5.420;2023-03-25T13:18:15;100299.31;;;11.55;87.42
72110;BME280;59983;52.010;5.420;2023-03-25T13:23:39;100328.53;;;11.84;83.67
72110;BME280;59983;52.010;5.420;2023-03-25T13:26:20;100317.53;;;11.77;82.47
72110;BME280;59983;52.010;5.420;2023-03-25T13:28:53;100325.81;;;11.61;82.40
72110;BME280;59983;52.010;5.420;2023-03-25T13:31:25;100340.47;;;11.57;82.49
72110;BME280;59983;52.010;5.420;2023-03-25T13:34:18;100332.88;;;11.66;81.61
72110;BME280;59983;52.010;5.420;2023-03-25T13:37:07;100343.84;;;11.73;80.04
72110;BME280;59983;52.010;5.420;2023-03-25T13:45:21;100314.59;;;13.17;76.99
72110;BME280;59983;52.010;5.420;2023-03-25T13:47:57;100327.16;;;12.91;75.87
72110;BME280;59983;52.010;5.420;2023-03-25T13:50:27;100368.19;;;12.45;74.01
72110;BME280;59983;52.010;5.420;2023-03-25T13:53:02;100358.84;;;12.13;76.49
72110;BME280;59983;52.010;5.420;2023-03-25T13:55:34;100332.81;;;12.42;75.58
72110;BME280;59983;52.010;5.420;2023-03-25T14:03:52;100344.38;;;12.35;75.76
72110;BME280;59983;52.010;5.420;2023-03-25T14:12:10;100355.81;;;11.69;76.52
72110;BME280;59983;52.010;5.420;2023-03-25T14:14:44;100376.84;;;11.49;79.02
72110;BME280;59983;52.010;5.420;2023-03-25T14:17:14;100401.91;;;11.19;84.02
72110;BME280;59983;52.010;5.420;2023-03-25T14:19:47;100391.44;;;10.79;89.54
72110;BME280;59983;52.010;5.420;2023-03-25T14:22:19;100390.75;;;10.47;92.26
72110;BME280;59983;52.010;5.420;2023-03-25T14:24:48;100397.75;;;10.48;95.30
72110;BME280;59983;52.010;5.420;2023-03-25T14:27:20;100376.53;;;11.12;93.09
72110;BME280;59983;52.010;5.420;2023-03-25T14:29:59;100387.69;;;11.26;91.91
72110;BME280;59983;52.010;5.420;2023-03-25T14:32:38;100371.13;;;11.12;92.40
72110;BME280;59983;52.010;5.420;2023-03-25T14:43:31;100365.81;;;11.84;89.70
72110;BME280;59983;52.010;5.420;2023-03-25T14:48:48;100357.38;;;11.93;90.60
72110;BME280;59983;52.010;5.420;2023-03-25T14:51:42;100393.56;;;11.97;88.22
72110;BME280;59983;52.010;5.420;2023-03-25T14:59:30;100386.56;;;12.22;80.36
72110;BME280;59983;52.010;5.420;2023-03-25T15:02:05;100372.09;;;12.18;80.16
72110;BME280;59983;52.010;5.420;2023-03-25T15:04:36;100408.38;;;12.56;78.60
72110;BME280;59983;52.010;5.420;2023-03-25T15:07:09;100394.34;;;12.54;77.95
72110;BME280;59983;52.010;5.420;2023-03-25T15:09:55;100413.38;;;12.24;78.17
72110;BME280;59983;52.010;5.420;2023-03-25T15:12:23;100396.22;;;11.93;77.22